createdAt,value
2018-12-23T00:00:32.657Z,9.00
2018-12-23T00:03:08.423Z,9.00
2018-12-23T00:05:44.404Z,9.00
2018-12-23T00:08:20.474Z,8.90
2018-12-23T00:10:56.222Z,8.90
2018-12-23T00:13:32.384Z,8.90
2018-12-23T00:16:08.281Z,8.90
2018-12-23T00:18:44.163Z,8.90
2018-12-23T00:21:19.990Z,8.90
2018-12-23T00:23:55.717Z,8.80
2018-12-23T00:26:31.523Z,8.80
2018-12-23T00:29:07.654Z,8.80
2018-12-23T00:31:43.372Z,8.70
2018-12-23T00:34:19.401Z,8.60
2018-12-23T00:36:55.153Z,8.60
2018-12-23T00:39:30.936Z,8.60
2018-12-23T00:42:06.788Z,8.50
2018-12-23T00:44:42.882Z,8.50
2018-12-23T00:47:18.745Z,8.50
2018-12-23T00:49:54.945Z,8.50
2018-12-23T00:52:30.481Z,8.50
2018-12-23T00:55:06.531Z,8.50
2018-12-23T00:57:42.199Z,8.50
2018-12-23T01:00:18.446Z,8.50
2018-12-23T01:02:53.940Z,8.40
2018-12-23T01:05:29.611Z,8.40
2018-12-23T01:08:05.440Z,8.30
2018-12-23T01:10:41.222Z,8.30
2018-12-23T01:13:16.995Z,8.30
2018-12-23T01:15:52.788Z,8.30
2018-12-23T01:18:28.795Z,8.30
2018-12-23T01:21:04.581Z,8.40
2018-12-23T01:23:40.729Z,8.40
2018-12-23T01:26:16.740Z,8.40
2018-12-23T01:28:52.528Z,8.50
2018-12-23T01:31:28.312Z,8.50
2018-12-23T01:34:05.379Z,8.50
2018-12-23T01:36:41.086Z,8.50
2018-12-23T01:39:17.106Z,8.50
2018-12-23T01:41:52.920Z,8.60
2018-12-23T01:44:29.147Z,8.50
2018-12-23T01:47:04.561Z,8.50
2018-12-23T01:49:40.583Z,8.50
2018-12-23T01:52:16.334Z,8.50
2018-12-23T01:54:52.234Z,8.40
2018-12-23T01:57:28.397Z,8.40
2018-12-23T02:00:04.589Z,8.40
2018-12-23T02:22:10.118Z,8.20
2018-12-23T02:24:46.246Z,8.20
2018-12-23T02:27:22.229Z,8.20
2018-12-23T02:29:58.198Z,8.20
2018-12-23T02:32:34.256Z,8.20
2018-12-23T02:35:10.424Z,8.20
2018-12-23T02:37:47.497Z,8.30
2018-12-23T02:40:23.431Z,8.20
2018-12-23T02:42:59.445Z,8.10
2018-12-23T02:45:35.497Z,8.10
2018-12-23T02:48:11.273Z,8.10
2018-12-23T02:50:47.281Z,8.10
2018-12-23T02:53:22.694Z,8.10
2018-12-23T02:55:59.635Z,8.10
2018-12-23T02:58:35.585Z,8.10
2018-12-23T03:01:11.666Z,8.10
2018-12-23T03:03:47.288Z,8.10
2018-12-23T03:06:23.050Z,8.10
2018-12-23T03:08:58.986Z,8.00
2018-12-23T03:11:35.039Z,8.00
2018-12-23T03:14:10.882Z,7.90
2018-12-23T03:16:46.634Z,7.80
2018-12-23T03:19:23.023Z,7.80
2018-12-23T03:21:59.046Z,7.70
2018-12-23T03:24:35.217Z,7.60
2018-12-23T03:27:11.270Z,7.60
2018-12-23T03:29:47.159Z,7.50
2018-12-23T03:32:23.015Z,7.40
2018-12-23T03:37:56.301Z,7.40
2018-12-23T03:40:28.666Z,7.30
2018-12-23T03:42:59.862Z,7.30
2018-12-23T03:45:31.039Z,7.30
2018-12-23T03:48:02.225Z,7.20
2018-12-23T03:50:33.883Z,7.20
2018-12-23T03:53:05.195Z,7.10
2018-12-23T03:55:36.397Z,7.10
2018-12-23T03:58:07.632Z,7.10
2018-12-23T04:00:38.778Z,7.00
2018-12-23T04:03:09.945Z,7.00
2018-12-23T04:05:41.190Z,7.00
2018-12-23T04:08:12.456Z,6.90
2018-12-23T04:10:43.631Z,6.90
2018-12-23T04:13:15.611Z,6.90
2018-12-23T04:15:46.858Z,6.90
2018-12-23T04:18:19.090Z,6.80
2018-12-23T04:20:52.067Z,6.80
2018-12-23T04:23:23.183Z,6.80
2018-12-23T04:25:54.412Z,6.80
2018-12-23T04:28:25.501Z,6.80
2018-12-23T04:30:56.722Z,6.70
2018-12-23T04:33:27.935Z,6.70
2018-12-23T04:35:59.423Z,6.80
2018-12-23T04:38:30.691Z,6.70
2018-12-23T04:41:01.938Z,6.80
2018-12-23T04:43:33.189Z,6.80
2018-12-23T04:46:05.682Z,6.80
2018-12-23T04:48:36.791Z,6.80
2018-12-23T04:51:08.121Z,6.80
2018-12-23T04:53:39.326Z,6.70
2018-12-23T04:56:10.435Z,6.70
2018-12-23T04:58:41.662Z,6.80
2018-12-23T05:01:12.879Z,6.70
2018-12-23T05:03:44.191Z,6.80
2018-12-23T05:06:17.793Z,6.90
2018-12-23T05:08:50.007Z,6.90
2018-12-23T05:11:21.263Z,6.90
2018-12-23T05:13:52.396Z,7.00
2018-12-23T05:16:23.782Z,7.00
2018-12-23T05:18:55.051Z,7.00
2018-12-23T05:21:26.294Z,7.00
2018-12-23T05:23:57.541Z,7.00
2018-12-23T05:26:29.816Z,7.00
2018-12-23T05:29:01.581Z,7.00
2018-12-23T05:31:32.660Z,7.00
2018-12-23T05:34:03.715Z,7.00
2018-12-23T05:36:34.897Z,7.10
2018-12-23T05:39:07.624Z,7.10
2018-12-23T05:41:38.877Z,7.10
2018-12-23T05:44:11.584Z,7.10
2018-12-23T05:46:43.001Z,7.20
2018-12-23T05:49:15.308Z,7.20
2018-12-23T05:51:46.569Z,7.20
2018-12-23T05:54:17.846Z,7.30
2018-12-23T05:56:49.058Z,7.30
2018-12-23T05:59:21.266Z,7.30
2018-12-23T06:01:53.189Z,7.30
2018-12-23T06:04:24.327Z,7.40
2018-12-23T06:07:00.928Z,7.40
2018-12-23T06:09:29.170Z,7.40
2018-12-23T06:12:01.679Z,7.40
2018-12-23T06:14:32.745Z,7.40
2018-12-23T06:17:04.099Z,7.50
2018-12-23T06:19:35.318Z,7.50
2018-12-23T06:22:06.497Z,7.50
2018-12-23T06:24:37.709Z,7.50
2018-12-23T06:27:10.250Z,7.60
2018-12-23T06:29:41.463Z,7.60
2018-12-23T06:32:12.606Z,7.60
2018-12-23T06:34:43.886Z,7.70
2018-12-23T06:37:15.206Z,7.60
2018-12-23T06:39:47.278Z,7.60
2018-12-23T06:42:18.527Z,7.70
2018-12-23T06:44:49.682Z,7.70
2018-12-23T06:47:20.874Z,7.70
2018-12-23T06:49:52.085Z,7.60
2018-12-23T06:52:23.615Z,7.60
2018-12-23T06:54:54.751Z,7.50
2018-12-23T06:57:25.925Z,7.40
2018-12-23T06:59:58.779Z,7.40
2018-12-23T07:02:30.120Z,7.50
2018-12-23T07:05:01.324Z,7.50
2018-12-23T07:07:32.565Z,7.40
2018-12-23T07:10:03.794Z,7.40
2018-12-23T07:12:35.090Z,7.40
2018-12-23T07:15:08.879Z,7.40
2018-12-23T07:17:40.143Z,7.40
2018-12-23T07:20:12.446Z,7.40
2018-12-23T07:22:43.658Z,7.40
2018-12-23T07:25:14.865Z,7.40
2018-12-23T07:27:46.548Z,7.40
2018-12-23T07:30:17.787Z,7.40
2018-12-23T07:32:48.910Z,7.40
2018-12-23T07:35:20.097Z,7.40
2018-12-23T07:37:52.162Z,7.40
2018-12-23T07:40:23.334Z,7.40
2018-12-23T07:42:54.539Z,7.40
2018-12-23T07:45:25.797Z,7.40
2018-12-23T07:47:57.046Z,7.40
2018-12-23T07:50:28.212Z,7.40
2018-12-23T07:52:59.511Z,7.40
2018-12-23T07:55:30.721Z,7.40
2018-12-23T07:58:01.939Z,7.50
2018-12-23T08:00:33.134Z,7.50
2018-12-23T08:03:04.431Z,7.50
2018-12-23T08:05:35.834Z,7.50
2018-12-23T08:08:07.126Z,7.50
2018-12-23T08:10:38.282Z,7.50
2018-12-23T08:13:09.371Z,7.50
2018-12-23T08:15:40.538Z,7.50
2018-12-23T08:18:11.811Z,7.60
2018-12-23T08:20:43.009Z,7.60
2018-12-23T08:23:14.206Z,7.60
2018-12-23T08:25:45.393Z,7.60
2018-12-23T08:28:16.654Z,7.60
2018-12-23T08:30:47.828Z,7.60
2018-12-23T08:33:18.934Z,7.60
2018-12-23T08:35:50.042Z,7.70
2018-12-23T08:38:21.239Z,7.70
2018-12-23T08:40:52.399Z,7.70
2018-12-23T08:43:23.621Z,7.70
2018-12-23T08:45:54.894Z,7.70
2018-12-23T08:48:38.874Z,7.80
2018-12-23T08:51:10.116Z,7.80
2018-12-23T08:53:41.287Z,7.80
2018-12-23T08:56:12.483Z,7.90
2018-12-23T08:58:45.794Z,7.90
2018-12-23T09:01:17.207Z,7.90
2018-12-23T09:03:48.330Z,7.90
2018-12-23T09:06:19.398Z,7.90
2018-12-23T09:08:51.739Z,7.90
2018-12-23T09:11:22.926Z,7.90
2018-12-23T09:13:54.120Z,8.00
2018-12-23T09:16:25.666Z,8.00
2018-12-23T09:18:56.920Z,8.00
2018-12-23T09:21:28.190Z,8.00
2018-12-23T09:23:59.443Z,8.00
2018-12-23T09:26:32.379Z,8.10
2018-12-23T09:29:03.904Z,8.10
2018-12-23T09:31:35.085Z,8.10
2018-12-23T09:34:06.258Z,8.10
2018-12-23T09:36:37.484Z,8.10
2018-12-23T09:39:08.986Z,8.10
2018-12-23T09:41:40.263Z,8.10
2018-12-23T09:44:11.494Z,8.10
2018-12-23T09:46:42.663Z,8.10
2018-12-23T09:49:13.958Z,8.10
2018-12-23T09:51:45.362Z,8.10
2018-12-23T09:54:16.557Z,8.10
2018-12-23T09:56:47.723Z,8.10
2018-12-23T09:59:19.070Z,8.10
2018-12-23T10:01:50.266Z,8.10
2018-12-23T10:04:21.439Z,8.20
2018-12-23T10:06:52.901Z,8.20
2018-12-23T10:09:23.973Z,8.20
2018-12-23T10:11:56.284Z,8.20
2018-12-23T10:14:27.627Z,8.20
2018-12-23T10:16:59.052Z,8.20
2018-12-23T10:19:30.294Z,8.20
2018-12-23T10:22:01.503Z,8.30
2018-12-23T10:24:32.825Z,8.30
2018-12-23T10:27:03.915Z,8.30
2018-12-23T10:29:35.131Z,8.30
2018-12-23T10:32:06.395Z,8.30
2018-12-23T10:34:37.607Z,8.30
2018-12-23T10:37:08.820Z,8.30
2018-12-23T10:39:40.266Z,8.40
2018-12-23T10:42:11.489Z,8.40
2018-12-23T10:44:42.813Z,8.40
2018-12-23T10:47:14.014Z,8.40
2018-12-23T10:49:45.534Z,8.40
2018-12-23T10:52:16.772Z,8.40
2018-12-23T10:54:48.088Z,8.50
2018-12-23T10:57:19.439Z,8.50
2018-12-23T10:59:50.868Z,8.50
2018-12-23T11:02:22.142Z,8.50
2018-12-23T11:04:54.549Z,8.60
2018-12-23T11:07:25.781Z,8.60
2018-12-23T11:10:01.828Z,8.60
2018-12-23T11:12:29.849Z,8.60
2018-12-23T11:15:01.089Z,8.60
2018-12-23T11:17:32.201Z,8.60
2018-12-23T11:20:03.399Z,8.60
2018-12-23T11:22:34.622Z,8.60
2018-12-23T11:25:05.835Z,8.50
2018-12-23T11:27:38.081Z,8.50
2018-12-23T11:30:09.747Z,8.60
2018-12-23T11:32:41.001Z,8.60
2018-12-23T11:35:12.256Z,8.60
2018-12-23T11:37:43.467Z,8.70
2018-12-23T11:40:14.659Z,8.70
2018-12-23T11:42:45.815Z,8.70
2018-12-23T11:45:17.104Z,8.70
2018-12-23T11:47:48.275Z,8.70
2018-12-23T11:50:19.550Z,8.70
2018-12-23T11:52:50.742Z,8.80
2018-12-23T11:55:21.963Z,8.80
2018-12-23T11:57:56.195Z,8.80
2018-12-23T12:00:27.382Z,8.80
2018-12-23T12:02:58.685Z,8.80
2018-12-23T12:05:29.909Z,8.80
2018-12-23T12:08:01.295Z,8.80
2018-12-23T12:10:32.995Z,8.80
2018-12-23T12:13:04.247Z,8.90
2018-12-23T12:15:35.518Z,8.90
2018-12-23T12:18:06.734Z,8.90
2018-12-23T12:20:37.865Z,9.00
2018-12-23T12:23:09.122Z,9.00
2018-12-23T12:25:40.550Z,9.00
2018-12-23T12:28:11.799Z,9.00
2018-12-23T12:30:43.091Z,9.00
2018-12-23T12:33:14.323Z,9.00
2018-12-23T12:35:45.526Z,9.00
2018-12-23T12:38:16.751Z,9.00
2018-12-23T12:40:48.330Z,9.10
2018-12-23T12:43:19.610Z,9.00
2018-12-23T12:45:50.842Z,9.00
2018-12-23T12:48:22.420Z,9.00
2018-12-23T12:50:53.635Z,9.00
2018-12-23T12:53:25.208Z,9.00
2018-12-23T12:55:56.592Z,9.00
2018-12-23T12:58:27.840Z,9.00
2018-12-23T13:01:01.631Z,9.00
2018-12-23T13:03:32.924Z,9.00
2018-12-23T13:06:04.193Z,9.10
2018-12-23T13:08:35.530Z,9.00
2018-12-23T13:11:06.790Z,9.00
2018-12-23T13:13:38.114Z,8.90
2018-12-23T13:16:09.421Z,8.90
2018-12-23T13:18:40.798Z,8.90
2018-12-23T13:21:12.113Z,8.90
2018-12-23T13:23:45.661Z,8.80
2018-12-23T13:26:20.190Z,8.80
2018-12-23T13:28:51.464Z,8.80
2018-12-23T13:31:22.655Z,8.80
2018-12-23T13:33:54.016Z,8.80
2018-12-23T13:36:25.263Z,8.80
2018-12-23T13:38:59.007Z,8.80
2018-12-23T13:41:49.756Z,8.70
2018-12-23T13:45:11.262Z,8.70
2018-12-23T13:48:15.233Z,8.80
2018-12-23T13:51:26.490Z,8.80
2018-12-23T13:54:37.816Z,8.70
2018-12-23T13:57:46.078Z,8.80
2018-12-23T14:01:06.082Z,8.70
2018-12-23T14:04:44.840Z,8.70
2018-12-23T14:07:40.091Z,8.70
2018-12-23T14:11:04.429Z,8.70
2018-12-23T14:13:35.700Z,8.60
2018-12-23T14:16:06.875Z,8.70
2018-12-23T14:18:38.118Z,8.70
2018-12-23T14:21:09.280Z,8.70
2018-12-23T14:23:42.202Z,8.70
2018-12-23T14:26:13.320Z,8.60
2018-12-23T14:28:44.569Z,8.60
2018-12-23T14:31:16.053Z,8.60
2018-12-23T14:33:48.549Z,8.60
2018-12-23T14:36:19.753Z,8.60
2018-12-23T14:38:50.949Z,8.60
2018-12-23T14:41:22.159Z,8.60
2018-12-23T14:43:53.477Z,8.60
2018-12-23T14:46:24.693Z,8.60
2018-12-23T14:48:56.068Z,8.50
2018-12-23T14:51:27.452Z,8.50
2018-12-23T14:53:58.606Z,8.50
2018-12-23T14:56:29.760Z,8.50
2018-12-23T14:59:00.925Z,8.50
2018-12-23T15:01:32.217Z,8.50
2018-12-23T15:04:03.537Z,8.40
2018-12-23T15:06:34.786Z,8.40
2018-12-23T15:09:07.847Z,8.40
2018-12-23T15:11:39.079Z,8.40
2018-12-23T15:14:10.350Z,8.40
2018-12-23T15:16:41.607Z,8.40
2018-12-23T15:19:12.926Z,8.40
2018-12-23T15:21:44.149Z,8.30
2018-12-23T15:24:15.419Z,8.30
2018-12-23T15:26:46.626Z,8.40
2018-12-23T15:29:17.855Z,8.30
2018-12-23T15:31:49.114Z,8.30
2018-12-23T15:34:20.438Z,8.30
2018-12-23T15:36:51.629Z,8.30
2018-12-23T15:39:22.819Z,8.30
2018-12-23T15:41:56.461Z,8.20
2018-12-23T15:44:27.804Z,8.30
2018-12-23T15:46:58.918Z,8.20
2018-12-23T15:49:30.153Z,8.20
2018-12-23T15:53:01.866Z,8.20
2018-12-23T15:55:33.081Z,8.20
2018-12-23T15:58:04.437Z,8.20
2018-12-23T16:00:50.757Z,8.20
2018-12-23T16:03:22.024Z,8.30
2018-12-23T16:05:53.243Z,8.20
2018-12-23T16:08:24.517Z,8.20
2018-12-23T16:10:55.724Z,8.20
2018-12-23T16:13:26.980Z,8.30
2018-12-23T16:15:58.163Z,8.30
2018-12-23T16:18:29.379Z,8.30
2018-12-23T16:21:00.637Z,8.20
2018-12-23T16:23:31.966Z,8.30
2018-12-23T16:26:03.202Z,8.30
2018-12-23T16:28:34.475Z,8.30
2018-12-23T16:31:05.729Z,8.30
2018-12-23T16:33:36.865Z,8.20
2018-12-23T16:36:08.009Z,8.20
2018-12-23T16:38:39.424Z,8.20
2018-12-23T16:41:10.772Z,8.20
2018-12-23T16:43:41.960Z,8.10
2018-12-23T16:46:13.231Z,8.20
2018-12-23T16:48:44.938Z,8.10
2018-12-23T16:51:16.107Z,8.10
2018-12-23T16:53:47.534Z,8.10
2018-12-23T16:56:18.674Z,8.10
2018-12-23T16:58:49.935Z,8.10
2018-12-23T17:01:21.148Z,8.10
2018-12-23T17:03:52.347Z,8.10
2018-12-23T17:06:25.734Z,8.10
2018-12-23T17:08:56.565Z,8.00
2018-12-23T17:11:27.763Z,8.00
2018-12-23T17:13:58.992Z,8.00
2018-12-23T17:16:30.255Z,8.00
2018-12-23T17:19:01.532Z,8.00
2018-12-23T17:21:32.844Z,8.00
2018-12-23T17:24:04.196Z,8.00
2018-12-23T17:26:35.455Z,8.00
2018-12-23T17:29:06.698Z,8.00
2018-12-23T17:31:37.911Z,7.90
2018-12-23T17:34:09.197Z,7.90
2018-12-23T17:36:40.331Z,7.90
2018-12-23T17:39:11.490Z,8.00
2018-12-23T17:41:43.911Z,7.90
2018-12-23T17:44:15.135Z,8.00
2018-12-23T17:46:46.396Z,8.00
2018-12-23T17:49:17.627Z,8.00
2018-12-23T17:51:48.804Z,7.90
2018-12-23T17:54:20.027Z,8.00
2018-12-23T17:56:51.279Z,8.00
2018-12-23T17:59:22.567Z,8.00
2018-12-23T18:01:53.819Z,8.00
2018-12-23T18:04:25.046Z,7.90
2018-12-23T18:07:03.496Z,7.80
2018-12-23T18:09:29.334Z,7.80
2018-12-23T18:12:00.510Z,7.80
2018-12-23T18:14:31.837Z,7.70
2018-12-23T18:17:03.110Z,7.70
2018-12-23T18:19:34.488Z,7.60
2018-12-23T18:22:05.752Z,7.60
2018-12-23T18:24:36.933Z,7.60
2018-12-23T18:27:08.147Z,7.60
2018-12-23T18:29:39.373Z,7.60
2018-12-23T18:32:10.627Z,7.50
2018-12-23T18:34:41.950Z,7.60
2018-12-23T18:37:13.244Z,7.50
2018-12-23T18:39:44.511Z,7.40
2018-12-23T18:42:15.799Z,7.40
2018-12-23T18:44:47.042Z,7.40
2018-12-23T18:47:18.339Z,7.50
2018-12-23T18:49:49.713Z,7.50
2018-12-23T18:52:20.917Z,7.40
2018-12-23T18:54:52.117Z,7.40
2018-12-23T18:57:23.807Z,7.50
2018-12-23T18:59:55.066Z,7.40
2018-12-23T19:02:36.971Z,7.40
2018-12-23T19:05:08.115Z,7.40
2018-12-23T19:07:39.962Z,7.40
2018-12-23T19:10:21.327Z,7.40
2018-12-23T19:13:32.668Z,7.40
2018-12-23T19:17:00.152Z,7.40
2018-12-23T19:20:03.919Z,7.40
2018-12-23T19:23:24.042Z,7.30
2018-12-23T19:26:48.180Z,7.30
2018-12-23T19:30:02.232Z,7.40
2018-12-23T19:33:09.239Z,7.40
2018-12-23T19:36:05.088Z,7.30
2018-12-23T19:39:20.525Z,7.30
2018-12-23T19:42:50.739Z,7.30
2018-12-23T19:46:18.983Z,7.30
2018-12-23T19:49:08.125Z,7.20
2018-12-23T19:52:15.008Z,7.20
2018-12-23T19:55:32.522Z,7.10
2018-12-23T19:58:39.551Z,7.10
2018-12-23T20:01:20.687Z,7.00
2018-12-23T20:04:18.238Z,7.00
2018-12-23T20:07:29.347Z,6.90
2018-12-23T20:10:35.986Z,6.90
2018-12-23T20:13:39.423Z,6.90
2018-12-23T20:16:46.154Z,6.90
2018-12-23T20:20:16.611Z,6.90
2018-12-23T20:23:27.667Z,6.80
2018-12-23T20:26:44.973Z,6.80
2018-12-23T20:29:52.935Z,6.80
2018-12-23T20:32:42.878Z,6.90
2018-12-23T20:35:54.666Z,6.80
2018-12-23T20:39:02.928Z,6.90
2018-12-23T20:42:17.846Z,6.80
2018-12-23T20:45:48.404Z,6.80
2018-12-23T20:49:03.527Z,6.70
2018-12-23T20:52:04.030Z,6.70
2018-12-23T20:55:11.075Z,6.70
2018-12-23T20:58:19.197Z,6.70
2018-12-23T21:01:18.915Z,6.60
2018-12-23T21:04:34.023Z,6.60
2018-12-23T21:07:34.976Z,6.50
2018-12-23T21:11:02.264Z,6.60
2018-12-23T21:14:20.250Z,6.60
2018-12-23T21:17:50.954Z,6.60
2018-12-23T21:20:55.373Z,6.50
2018-12-23T21:24:16.283Z,6.50
2018-12-23T21:27:37.651Z,6.50
2018-12-23T21:31:11.198Z,6.50
2018-12-23T21:34:19.634Z,6.50
2018-12-23T21:37:10.262Z,6.60
2018-12-23T21:40:17.284Z,6.50
2018-12-23T21:43:29.491Z,6.60
2018-12-23T21:46:40.559Z,6.50
2018-12-23T21:49:38.514Z,6.50
2018-12-23T21:52:56.680Z,6.50
2018-12-23T21:56:02.992Z,6.50
2018-12-23T21:59:16.075Z,6.40
2018-12-23T22:02:21.743Z,6.50
2018-12-23T22:05:32.594Z,6.50
2018-12-23T22:08:44.874Z,6.50
2018-12-23T22:11:53.070Z,6.50
2018-12-23T22:14:24.300Z,6.50
2018-12-23T22:16:55.556Z,6.50
2018-12-23T22:19:26.843Z,6.50
2018-12-23T22:21:58.119Z,6.50
2018-12-23T22:24:29.644Z,6.50
2018-12-23T22:27:00.972Z,6.40
2018-12-23T22:29:32.219Z,6.40
2018-12-23T22:32:03.518Z,6.40
2018-12-23T22:34:34.746Z,6.30
2018-12-23T22:37:05.155Z,6.30
2018-12-23T22:39:36.404Z,6.30
2018-12-23T22:42:07.820Z,6.30
2018-12-23T22:44:39.088Z,6.30
2018-12-23T22:47:10.371Z,6.30
2018-12-23T22:49:41.718Z,6.20
2018-12-23T22:52:13.019Z,6.20
2018-12-23T22:54:44.188Z,6.10
2018-12-23T22:57:16.539Z,6.10
2018-12-23T22:59:47.858Z,6.10
2018-12-23T23:02:19.197Z,6.00
2018-12-23T23:04:50.454Z,5.90
2018-12-23T23:07:21.890Z,5.90
2018-12-23T23:09:53.130Z,5.90
2018-12-23T23:12:24.448Z,5.80
2018-12-23T23:14:55.788Z,5.80
2018-12-23T23:17:27.030Z,5.80
2018-12-23T23:19:58.324Z,5.80
2018-12-23T23:22:29.643Z,5.80
2018-12-23T23:25:00.913Z,5.80
2018-12-23T23:27:32.362Z,5.80
2018-12-23T23:30:04.341Z,5.80
2018-12-23T23:32:35.482Z,5.90
2018-12-23T23:35:06.788Z,5.90
2018-12-23T23:37:38.349Z,5.90
2018-12-23T23:40:09.495Z,5.90
2018-12-23T23:42:40.715Z,5.90
2018-12-23T23:45:11.823Z,6.00
2018-12-23T23:47:43.107Z,6.00
2018-12-23T23:50:14.370Z,6.00
2018-12-23T23:52:45.616Z,6.00
2018-12-23T23:55:16.825Z,6.00
2018-12-23T23:57:48.067Z,6.00
